createdAt,value
2018-05-03T22:31:53.823Z,48.81
2018-05-03T22:32:15.880Z,48.47
2018-05-03T22:32:38.699Z,48.26
2018-05-03T22:33:00.755Z,48.41
2018-05-03T22:33:22.803Z,48.24
2018-05-03T22:33:44.851Z,48.20
2018-05-03T22:34:06.902Z,48.39
2018-05-03T22:34:29.702Z,48.33
2018-05-03T22:34:53.235Z,48.42
2018-05-03T22:35:15.294Z,48.37
2018-05-03T22:35:38.082Z,48.29
2018-05-03T22:36:00.111Z,48.32
2018-05-03T22:36:22.149Z,48.39
2018-05-03T22:36:44.172Z,48.51
2018-05-03T22:37:06.986Z,48.63
2018-05-03T22:37:29.415Z,48.55
2018-05-03T22:37:51.447Z,48.63
2018-05-03T22:38:14.243Z,48.89
2018-05-03T22:38:36.267Z,48.89
2018-05-03T22:38:58.284Z,48.99
2018-05-03T22:39:20.299Z,48.93
2018-05-03T22:39:42.350Z,48.93
2018-05-03T22:40:05.148Z,49.03
2018-05-03T22:40:27.213Z,49.11
2018-05-03T22:40:50.108Z,49.11
2018-05-03T22:41:12.056Z,49.05
2018-05-03T22:41:34.852Z,49.11
2018-05-03T22:41:56.879Z,49.28
2018-05-03T22:42:18.925Z,49.32
2018-05-03T22:42:41.737Z,49.43
2018-05-03T22:43:03.798Z,49.36
2018-05-03T22:43:25.808Z,49.16
2018-05-03T22:43:48.589Z,49.18
2018-05-03T22:44:10.613Z,49.08
2018-05-03T22:44:32.644Z,49.23
2018-05-03T22:44:54.685Z,49.31
2018-05-03T22:45:16.749Z,49.37
2018-05-03T22:45:38.795Z,49.46
2018-05-03T22:46:01.610Z,49.41
2018-05-03T22:46:23.634Z,49.34
2018-05-03T22:46:45.667Z,49.26
2018-05-03T22:47:07.688Z,49.29
2018-05-03T22:47:30.480Z,49.38
2018-05-03T22:47:52.511Z,49.29
2018-05-03T22:48:14.538Z,49.23
2018-05-03T22:48:36.555Z,49.19
2018-05-03T22:48:58.585Z,49.15
2018-05-03T22:49:20.603Z,49.08
2018-05-03T22:49:42.629Z,49.16
2018-05-03T22:50:05.419Z,49.24
2018-05-03T22:50:27.431Z,49.27
2018-05-03T22:50:49.488Z,49.20
2018-05-03T22:51:12.281Z,49.19
2018-05-03T22:51:34.304Z,49.24
2018-05-03T22:51:56.320Z,49.25
2018-05-03T22:52:18.371Z,49.31
2018-05-03T22:52:41.177Z,49.30
2018-05-03T22:53:03.210Z,49.32
2018-05-03T22:53:25.237Z,49.34
2018-05-03T22:53:48.024Z,49.27
2018-05-03T22:54:10.048Z,49.28
2018-05-03T22:54:32.069Z,49.28
2018-05-03T22:54:54.099Z,49.30
2018-05-03T22:55:16.138Z,49.41
2018-05-03T22:55:38.178Z,49.33
2018-05-03T22:56:00.236Z,49.29
2018-05-03T22:56:22.317Z,49.18
2018-05-03T22:56:44.350Z,49.19
2018-05-03T22:57:06.375Z,49.18
2018-05-03T22:57:28.408Z,49.15
2018-05-03T22:57:50.434Z,49.17
2018-05-03T22:58:12.465Z,49.29
2018-05-03T22:58:34.485Z,49.30
2018-05-03T22:58:56.549Z,49.33
2018-05-03T22:59:18.576Z,49.34
2018-05-03T22:59:40.599Z,49.31
2018-05-03T23:00:02.633Z,49.35
2018-05-03T23:00:24.675Z,49.36
2018-05-03T23:00:47.475Z,49.42
2018-05-03T23:01:09.516Z,49.41
2018-05-03T23:01:31.532Z,49.42
2018-05-03T23:01:53.578Z,49.40
2018-05-03T23:02:15.615Z,49.42
2018-05-03T23:02:37.641Z,49.51
2018-05-03T23:02:59.664Z,49.60
2018-05-03T23:03:21.696Z,49.62
2018-05-03T23:03:43.760Z,49.53
2018-05-03T23:04:06.554Z,49.56
2018-05-03T23:04:28.586Z,49.56
2018-05-03T23:04:51.370Z,49.57
2018-05-03T23:05:13.396Z,49.52
2018-05-03T23:05:35.421Z,49.60
2018-05-03T23:05:57.494Z,49.65
2018-05-03T23:06:20.311Z,49.69
2018-05-03T23:06:42.324Z,49.72
2018-05-03T23:07:04.351Z,49.66
2018-05-03T23:07:27.144Z,49.71
2018-05-03T23:07:49.159Z,49.70
2018-05-03T23:08:11.183Z,49.78
2018-05-03T23:08:33.200Z,49.81
2018-05-03T23:08:55.245Z,49.86
2018-05-03T23:09:17.260Z,49.88
2018-05-03T23:09:40.058Z,49.91
2018-05-03T23:10:02.080Z,49.92
2018-05-03T23:10:24.108Z,49.92
2018-05-03T23:10:46.141Z,49.92
2018-05-03T23:11:08.165Z,49.93
2018-05-03T23:11:30.995Z,50.03
2018-05-03T23:11:53.022Z,50.04
2018-05-03T23:12:15.813Z,50.06
2018-05-03T23:12:37.831Z,50.06
2018-05-03T23:12:59.848Z,49.99
2018-05-03T23:13:21.869Z,49.95
2018-05-03T23:13:43.891Z,50.01
2018-05-03T23:14:05.931Z,50.03
2018-05-03T23:14:28.738Z,50.04
2018-05-03T23:14:50.756Z,50.05
2018-05-03T23:15:12.773Z,50.10
2018-05-03T23:15:34.805Z,50.08
2018-05-03T23:15:56.829Z,50.05
2018-05-03T23:16:19.627Z,50.15
2018-05-03T23:16:41.687Z,50.12
2018-05-03T23:17:04.471Z,50.17
2018-05-03T23:17:26.489Z,50.16
2018-05-03T23:17:48.510Z,50.19
2018-05-03T23:18:10.533Z,50.23
2018-05-03T23:18:32.551Z,50.19
2018-05-03T23:18:54.574Z,50.20
2018-05-03T23:19:16.589Z,50.22
2018-05-03T23:19:38.618Z,50.21
2018-05-03T23:20:00.635Z,50.20
2018-05-03T23:20:22.661Z,50.21
2018-05-03T23:20:44.672Z,50.17
2018-05-03T23:21:06.685Z,50.22
2018-05-03T23:21:28.704Z,50.22
2018-05-03T23:21:50.756Z,50.24
2018-05-03T23:22:12.776Z,50.24
2018-05-03T23:22:34.801Z,50.22
2018-05-03T23:22:56.821Z,50.22
2018-05-03T23:23:18.854Z,50.23
2018-05-03T23:23:40.868Z,50.29
2018-05-03T23:24:02.894Z,50.29
2018-05-03T23:24:24.914Z,50.28
2018-05-03T23:24:46.952Z,50.24
2018-05-03T23:25:09.769Z,50.26
2018-05-03T23:25:31.791Z,50.30
2018-05-03T23:25:53.938Z,50.30
2018-05-03T23:26:16.724Z,50.41
2018-05-03T23:26:38.749Z,50.47
2018-05-03T23:27:00.872Z,50.44
2018-05-03T23:27:22.880Z,50.42
2018-05-03T23:27:44.904Z,50.37
2018-05-03T23:28:06.919Z,50.40
2018-05-03T23:28:28.948Z,50.48
2018-05-03T23:28:51.744Z,50.49
2018-05-03T23:29:13.763Z,50.48
2018-05-03T23:29:35.792Z,50.51
2018-05-03T23:29:57.813Z,50.50
2018-05-03T23:30:19.895Z,50.54
2018-05-03T23:30:41.921Z,50.55
2018-05-03T23:31:03.937Z,50.58
2018-05-03T23:31:25.965Z,50.60
2018-05-03T23:31:47.993Z,50.60
2018-05-03T23:32:10.050Z,50.66
2018-05-03T23:32:32.846Z,50.69
2018-05-03T23:32:54.865Z,50.67
2018-05-03T23:33:16.897Z,50.67
2018-05-03T23:33:38.908Z,50.64
2018-05-03T23:34:00.924Z,50.69
2018-05-03T23:34:22.940Z,50.53
2018-05-03T23:34:44.973Z,50.64
2018-05-03T23:35:06.987Z,50.65
2018-05-03T23:35:29.021Z,50.64
2018-05-03T23:35:51.804Z,50.60
2018-05-03T23:36:13.820Z,50.73
2018-05-03T23:36:35.846Z,50.80
2018-05-03T23:36:57.869Z,50.77
2018-05-03T23:37:19.914Z,50.74
2018-05-03T23:37:42.710Z,50.75
2018-05-03T23:38:04.779Z,50.77
2018-05-03T23:38:27.563Z,50.78
2018-05-03T23:38:49.597Z,50.82
2018-05-03T23:39:11.628Z,50.84
2018-05-03T23:39:33.653Z,50.86
2018-05-03T23:39:56.455Z,50.78
2018-05-03T23:40:18.476Z,50.79
2018-05-03T23:40:40.518Z,50.86
2018-05-03T23:41:03.325Z,50.77
2018-05-03T23:41:25.348Z,50.81
2018-05-03T23:41:47.386Z,50.83
2018-05-03T23:42:10.177Z,50.90
2018-05-03T23:42:32.227Z,50.92
2018-05-03T23:42:54.239Z,50.92
2018-05-03T23:43:16.253Z,50.98
2018-05-03T23:43:38.295Z,50.92
2018-05-03T23:44:01.083Z,50.86
2018-05-03T23:44:23.110Z,50.97
2018-05-03T23:44:45.145Z,50.94
2018-05-03T23:45:07.169Z,50.94
2018-05-03T23:45:29.952Z,50.99
2018-05-03T23:45:52.032Z,50.91
2018-05-03T23:46:14.817Z,50.99
2018-05-03T23:46:36.836Z,51.04
2018-05-03T23:46:58.852Z,51.12
2018-05-03T23:47:20.869Z,51.15
2018-05-03T23:47:42.920Z,51.14
2018-05-03T23:48:05.698Z,51.09
2018-05-03T23:48:27.737Z,51.12
2018-05-03T23:48:49.761Z,51.21
2018-05-03T23:49:11.798Z,51.25
2018-05-03T23:49:33.828Z,51.14
2018-05-03T23:49:56.613Z,51.18
2018-05-03T23:50:18.694Z,51.21
2018-05-03T23:50:40.728Z,51.33
2018-05-03T23:51:02.758Z,51.24
2018-05-03T23:51:24.783Z,51.19
2018-05-03T23:51:46.798Z,51.24
2018-05-03T23:52:08.821Z,51.25
2018-05-03T23:52:30.890Z,51.31
2018-05-03T23:52:52.972Z,51.30
2018-05-03T23:53:14.998Z,51.32
2018-05-03T23:53:37.016Z,51.37
2018-05-03T23:53:59.044Z,51.37
2018-05-03T23:54:21.840Z,51.41
2018-05-03T23:54:43.865Z,51.41
2018-05-03T23:55:05.903Z,51.41
2018-05-03T23:55:28.689Z,51.42
2018-05-03T23:55:50.711Z,51.32
2018-05-03T23:56:12.728Z,51.38
2018-05-03T23:56:34.749Z,51.31
2018-05-03T23:56:56.768Z,51.37
2018-05-03T23:57:18.779Z,51.45
2018-05-03T23:57:40.796Z,51.37
2018-05-03T23:58:02.861Z,51.44
2018-05-03T23:58:25.647Z,51.38
2018-05-03T23:58:47.674Z,51.44
2018-05-03T23:59:09.699Z,51.46
2018-05-03T23:59:31.734Z,51.51
2018-05-03T23:59:53.747Z,51.53
